Time;durP1;ratioP1;P1;durP2;ratioP2;P2;SDS_P1;SDS_P2;PMS_P1;PMS_P2;Temp;Humidity;BMP_temperature;BMP_pressure;BME280_temperature;BME280_humidity;BME280_pressure;Samples;Min_cycle;Max_cycle;Signal;HPM_P1;HPM_P2
2021/10/20 00:00:30;;;;;;;8.05;4.50;;;;;;;;;;5053472;28;20045;-67
2021/10/20 00:02:57;;;;;;;10.00;4.03;;;;;;;;;;5053265;28;20049;-67
2021/10/20 00:05:24;;;;;;;9.90;4.13;;;;;;;;;;5053459;28;20044;-67
2021/10/20 00:07:52;;;;;;;10.07;4.15;;;;;;;;;;5053223;28;20056;-66
2021/10/20 00:10:21;;;;;;;11.30;4.22;;;;;;;;;;5053485;28;20128;-67
2021/10/20 00:12:51;;;;;;;7.05;3.50;;;;;;;;;;5053446;28;20052;-67
2021/10/20 00:15:20;;;;;;;6.65;3.08;;;;;;;;;;5053476;28;20045;-67
2021/10/20 00:17:47;;;;;;;7.65;3.78;;;;;;;;;;5053382;28;20056;-67
2021/10/20 00:20:17;;;;;;;9.48;3.53;;;;;;;;;;5053623;28;20398;-67
2021/10/20 00:22:44;;;;;;;;;;;;;;;;;;5053681;28;20049;-67
2021/10/20 00:25:12;;;;;;;7.82;3.53;;;;;;;;;;5053133;28;20262;-66
2021/10/20 00:27:41;;;;;;;7.97;3.20;;;;;;;;;;5053262;28;20045;-66
2021/10/20 00:30:09;;;;;;;9.38;3.35;;;;;;;;;;5053211;28;20045;-66
2021/10/20 00:32:36;;;;;;;6.90;3.63;;;;;;;;;;5052904;28;20060;-67
2021/10/20 00:35:04;;;;;;;10.35;4.57;;;;;;;;;;5052841;28;20079;-68
2021/10/20 00:37:31;;;;;;;7.32;3.75;;;;;;;;;;5052616;28;20056;-67
2021/10/20 00:39:58;;;;;;;9.02;4.22;;;;;;;;;;5052592;28;20409;-66
2021/10/20 00:42:25;;;;;;;9.13;4.43;;;;;;;;;;5052981;28;20409;-67
2021/10/20 00:44:55;;;;;;;9.10;3.70;;;;;;;;;;5052678;28;20041;-66
2021/10/20 00:47:23;;;;;;;7.18;3.40;;;;;;;;;;5052930;28;20528;-66
2021/10/20 00:49:52;;;;;;;7.93;3.33;;;;;;;;;;5053078;28;20486;-66
2021/10/20 00:52:20;;;;;;;7.38;3.30;;;;;;;;;;5052681;28;20041;-66
2021/10/20 00:54:47;;;;;;;7.47;3.55;;;;;;;;;;5052721;28;20049;-66
2021/10/20 00:57:16;;;;;;;7.45;3.13;;;;;;;;;;5052700;28;20071;-67
2021/10/20 00:59:44;;;;;;;9.30;3.40;;;;;;;;;;5052606;28;20055;-66
2021/10/20 01:02:13;;;;;;;8.07;3.38;;;;;;;;;;5052409;28;20049;-67
2021/10/20 01:04:41;;;;;;;6.50;3.60;;;;;;;;;;5052283;28;20059;-67
2021/10/20 01:09:42;;;;;;;5.60;3.13;;;;;;;;;;5073292;28;20058;-61
2021/10/20 01:12:09;;;;;;;8.15;3.17;;;;;;;;;;5058119;28;20291;-61
2021/10/20 01:14:36;;;;;;;8.18;3.47;;;;;;;;;;5056237;28;20045;-62
2021/10/20 01:17:03;;;;;;;13.85;3.60;;;;;;;;;;5057633;28;20084;-61
2021/10/20 01:19:33;;;;;;;7.85;3.88;;;;;;;;;;5058859;28;20059;-61
2021/10/20 01:22:02;;;;;;;7.88;4.03;;;;;;;;;;5058680;28;20049;-61
2021/10/20 01:24:29;;;;;;;8.50;3.40;;;;;;;;;;5059331;28;20139;-61
2021/10/20 01:26:57;;;;;;;9.18;3.53;;;;;;;;;;5057346;28;20060;-61
2021/10/20 01:29:26;;;;;;;8.95;3.40;;;;;;;;;;5057770;28;20075;-61
2021/10/20 01:31:55;;;;;;;7.43;3.05;;;;;;;;;;5059849;28;20052;-62
2021/10/20 01:34:23;;;;;;;7.75;3.15;;;;;;;;;;5056949;28;20045;-61
2021/10/20 01:36:52;;;;;;;7.45;3.42;;;;;;;;;;5057152;28;20060;-62
2021/10/20 01:39:21;;;;;;;9.98;3.80;;;;;;;;;;5056450;28;20427;-62
2021/10/20 01:41:49;;;;;;;7.15;2.95;;;;;;;;;;5058386;28;20489;-61
2021/10/20 01:44:17;;;;;;;8.15;3.15;;;;;;;;;;5058044;28;20158;-62
2021/10/20 01:46:44;;;;;;;7.03;3.35;;;;;;;;;;5059087;28;20048;-62
2021/10/20 01:49:11;;;;;;;6.88;3.47;;;;;;;;;;5055915;28;20053;-62
2021/10/20 01:51:38;;;;;;;9.68;3.55;;;;;;;;;;5057941;28;20053;-62
2021/10/20 01:54:07;;;;;;;9.77;3.60;;;;;;;;;;5055762;28;20051;-62
2021/10/20 01:56:36;;;;;;;7.53;3.38;;;;;;;;;;5057680;28;20049;-62
2021/10/20 01:59:02;;;;;;;7.88;3.33;;;;;;;;;;5063594;28;20127;-62
2021/10/20 02:01:29;;;;;;;7.43;2.95;;;;;;;;;;5062148;28;20060;-62
2021/10/20 02:03:56;;;;;;;7.57;3.00;;;;;;;;;;5061569;28;20041;-62
2021/10/20 02:06:23;;;;;;;8.02;3.53;;;;;;;;;;5060641;28;20047;-62
2021/10/20 02:08:51;;;;;;;6.93;3.50;;;;;;;;;;5060564;28;20044;-62
2021/10/20 02:11:19;;;;;;;5.32;2.63;;;;;;;;;;5060901;28;20123;-61
2021/10/20 02:13:48;;;;;;;7.05;3.33;;;;;;;;;;5061784;28;20051;-62
2021/10/20 02:16:15;;;;;;;6.43;3.65;;;;;;;;;;5060171;28;20055;-62
2021/10/20 02:18:42;;;;;;;8.50;3.53;;;;;;;;;;5061359;28;20414;-62
2021/10/20 02:21:09;;;;;;;7.50;3.10;;;;;;;;;;5061012;28;20051;-62
2021/10/20 02:23:36;;;;;;;8.10;3.58;;;;;;;;;;5061508;28;20056;-61
2021/10/20 02:26:03;;;;;;;6.30;3.03;;;;;;;;;;5060238;28;20053;-62
2021/10/20 02:28:31;;;;;;;8.00;2.60;;;;;;;;;;5061208;28;20045;-62
2021/10/20 02:31:00;;;;;;;8.35;2.80;;;;;;;;;;5060924;28;20478;-61
2021/10/20 02:33:27;;;;;;;7.28;3.58;;;;;;;;;;5059396;28;20068;-62
2021/10/20 02:35:54;;;;;;;8.10;3.20;;;;;;;;;;5059945;28;20049;-62
2021/10/20 02:38:21;;;;;;;6.10;3.20;;;;;;;;;;5060411;28;20044;-62
2021/10/20 02:40:48;;;;;;;5.65;2.80;;;;;;;;;;5062237;28;20143;-62
2021/10/20 02:43:15;;;;;;;7.68;3.50;;;;;;;;;;5060589;28;20517;-61
2021/10/20 02:45:42;;;;;;;8.00;3.75;;;;;;;;;;5062033;28;20485;-61
2021/10/20 02:48:10;;;;;;;5.95;2.78;;;;;;;;;;5059979;28;20044;-61
2021/10/20 02:50:37;;;;;;;6.43;2.92;;;;;;;;;;5059970;28;20055;-62
2021/10/20 02:53:04;;;;;;;8.48;3.60;;;;;;;;;;5061423;28;20040;-62
2021/10/20 02:55:31;;;;;;;7.47;3.30;;;;;;;;;;5060180;28;20052;-61
2021/10/20 02:57:58;;;;;;;8.10;3.15;;;;;;;;;;5059812;28;20048;-61
2021/10/20 03:00:25;;;;;;;6.22;3.05;;;;;;;;;;5060582;28;20256;-61
2021/10/20 03:02:52;;;;;;;8.23;3.00;;;;;;;;;;5061132;28;20491;-61
2021/10/20 03:05:21;;;;;;;7.00;3.05;;;;;;;;;;5060293;28;20540;-61
2021/10/20 03:07:48;;;;;;;6.25;3.08;;;;;;;;;;5059631;28;20060;-61
2021/10/20 03:10:15;;;;;;;7.80;3.60;;;;;;;;;;5060644;28;20122;-61
2021/10/20 03:12:42;;;;;;;8.90;3.08;;;;;;;;;;5059198;28;20041;-61
2021/10/20 03:15:10;;;;;;;7.78;3.08;;;;;;;;;;5059819;28;20044;-62
2021/10/20 03:17:38;;;;;;;7.13;3.00;;;;;;;;;;5061314;28;20063;-62
2021/10/20 03:20:08;;;;;;;7.10;2.92;;;;;;;;;;5059966;28;20067;-62
2021/10/20 03:22:39;;;;;;;6.88;3.22;;;;;;;;;;5059510;28;20052;-61
2021/10/20 03:25:07;;;;;;;10.07;3.53;;;;;;;;;;5059382;28;20400;-63
2021/10/20 03:27:40;;;;;;;8.10;3.05;;;;;;;;;;5060053;28;20452;-62
2021/10/20 03:30:08;;;;;;;8.32;3.60;;;;;;;;;;5058984;28;20048;-61
2021/10/20 03:32:35;;;;;;;6.32;3.03;;;;;;;;;;5058635;28;20076;-61
2021/10/20 03:35:02;;;;;;;7.07;3.30;;;;;;;;;;5058993;28;20055;-61
2021/10/20 03:37:29;;;;;;;7.70;3.63;;;;;;;;;;5060288;28;20044;-62
2021/10/20 03:39:57;;;;;;;6.13;2.92;;;;;;;;;;5058573;28;20044;-61
2021/10/20 03:42:24;;;;;;;5.55;2.85;;;;;;;;;;5059524;28;20053;-62
2021/10/20 03:44:51;;;;;;;9.20;3.30;;;;;;;;;;5058039;28;20345;-62
2021/10/20 03:47:20;;;;;;;9.95;3.17;;;;;;;;;;5059777;28;20382;-63
2021/10/20 03:49:47;;;;;;;5.85;2.97;;;;;;;;;;5059759;28;20048;-62
2021/10/20 03:52:14;;;;;;;7.40;3.05;;;;;;;;;;5057367;28;20394;-62
2021/10/20 03:54:41;;;;;;;7.80;3.17;;;;;;;;;;5058516;28;20110;-62
2021/10/20 03:57:10;;;;;;;9.57;3.60;;;;;;;;;;5060055;28;20048;-62
2021/10/20 03:59:37;;;;;;;10.15;3.53;;;;;;;;;;5058516;28;20071;-63
2021/10/20 04:02:04;;;;;;;8.82;3.50;;;;;;;;;;5058266;28;20056;-62
2021/10/20 04:04:31;;;;;;;9.63;3.90;;;;;;;;;;5057449;28;20743;-62
2021/10/20 04:06:58;;;;;;;8.43;3.90;;;;;;;;;;5059559;28;20048;-62
2021/10/20 04:09:25;;;;;;;9.13;4.95;;;;;;;;;;5060733;28;20161;-63
2021/10/20 04:11:52;;;;;;;14.25;6.00;;;;;;;;;;5060067;28;20049;-62
2021/10/20 04:14:21;;;;;;;8.82;4.93;;;;;;;;;;5058911;28;20041;-62
2021/10/20 04:16:48;;;;;;;11.10;4.60;;;;;;;;;;5059478;28;20533;-61
2021/10/20 04:19:15;;;;;;;7.63;4.50;;;;;;;;;;5058452;28;20060;-62
2021/10/20 04:21:42;;;;;;;8.55;3.90;;;;;;;;;;5060630;28;20060;-63
2021/10/20 04:24:09;;;;;;;9.70;5.07;;;;;;;;;;5057498;28;20067;-62
2021/10/20 04:26:36;;;;;;;9.25;4.18;;;;;;;;;;5058298;28;20052;-62
2021/10/20 04:29:03;;;;;;;9.98;5.00;;;;;;;;;;5057128;28;20513;-62
2021/10/20 04:31:31;;;;;;;11.60;4.57;;;;;;;;;;5058821;28;20091;-62
2021/10/20 04:33:58;;;;;;;9.00;4.85;;;;;;;;;;5058398;28;20064;-62
2021/10/20 04:36:25;;;;;;;8.23;4.30;;;;;;;;;;5057712;28;20528;-62
2021/10/20 04:38:52;;;;;;;8.25;3.92;;;;;;;;;;5058057;28;20061;-62
2021/10/20 04:41:19;;;;;;;8.45;4.28;;;;;;;;;;5057401;28;20044;-62
2021/10/20 04:43:45;;;;;;;7.82;4.25;;;;;;;;;;5057332;28;20052;-62
2021/10/20 04:46:12;;;;;;;10.57;5.00;;;;;;;;;;5059267;28;20052;-62
2021/10/20 04:48:41;;;;;;;7.22;3.88;;;;;;;;;;5058164;28;20120;-62
2021/10/20 04:51:08;;;;;;;11.02;4.68;;;;;;;;;;5058036;28;20048;-62
2021/10/20 04:53:35;;;;;;;9.13;3.92;;;;;;;;;;5058566;28;20374;-62
2021/10/20 04:56:02;;;;;;;8.55;4.38;;;;;;;;;;5057906;28;20060;-63
2021/10/20 04:58:29;;;;;;;8.88;4.90;;;;;;;;;;5059505;28;20049;-62
2021/10/20 05:00:56;;;;;;;14.45;5.63;;;;;;;;;;5057071;28;20045;-62
2021/10/20 05:03:23;;;;;;;11.13;5.25;;;;;;;;;;5057911;28;20044;-62
2021/10/20 05:05:51;;;;;;;12.18;4.97;;;;;;;;;;5058710;28;20044;-62
2021/10/20 05:08:18;;;;;;;14.35;5.93;;;;;;;;;;5058452;28;20397;-62
2021/10/20 05:10:46;;;;;;;15.55;6.45;;;;;;;;;;5059063;28;20041;-62
2021/10/20 05:13:13;;;;;;;12.68;6.35;;;;;;;;;;5057502;28;20539;-63
2021/10/20 05:15:42;;;;;;;12.68;5.13;;;;;;;;;;5059098;28;20477;-63
2021/10/20 05:18:10;;;;;;;10.95;4.68;;;;;;;;;;5059133;28;20258;-62
2021/10/20 05:20:37;;;;;;;10.23;3.97;;;;;;;;;;5056872;28;20052;-62
2021/10/20 05:23:05;;;;;;;11.10;4.50;;;;;;;;;;5056612;28;20060;-63
2021/10/20 05:25:32;;;;;;;10.75;5.20;;;;;;;;;;5057324;28;20059;-62
2021/10/20 05:27:59;;;;;;;9.90;4.38;;;;;;;;;;5059481;28;20048;-62
2021/10/20 05:30:26;;;;;;;9.45;4.63;;;;;;;;;;5055882;28;20049;-62
2021/10/20 05:32:53;;;;;;;11.13;3.92;;;;;;;;;;5059272;28;20051;-62
2021/10/20 05:35:21;;;;;;;12.52;5.00;;;;;;;;;;5057307;28;20079;-62
2021/10/20 05:37:50;;;;;;;17.42;6.80;;;;;;;;;;5056839;28;20063;-63
2021/10/20 05:40:20;;;;;;;20.05;6.55;;;;;;;;;;5057630;28;20052;-63
2021/10/20 05:42:47;;;;;;;15.37;6.03;;;;;;;;;;5056693;28;20559;-62
2021/10/20 05:45:14;;;;;;;13.88;6.25;;;;;;;;;;5057597;28;20274;-63
2021/10/20 05:47:41;;;;;;;14.73;5.40;;;;;;;;;;5058387;28;20059;-62
2021/10/20 05:50:09;;;;;;;12.18;5.30;;;;;;;;;;5058331;28;20486;-62
2021/10/20 05:52:36;;;;;;;10.73;4.82;;;;;;;;;;5056128;28;20044;-62
2021/10/20 05:55:03;;;;;;;11.68;4.28;;;;;;;;;;5057787;28;20052;-62
2021/10/20 05:57:35;;;;;;;9.35;4.00;;;;;;;;;;5058586;28;20045;-62
2021/10/20 06:00:02;;;;;;;10.32;5.20;;;;;;;;;;5057760;28;20048;-62
2021/10/20 06:02:29;;;;;;;13.40;5.93;;;;;;;;;;5057821;28;20049;-63
2021/10/20 06:04:55;;;;;;;11.07;5.32;;;;;;;;;;5057987;28;20051;-62
2021/10/20 06:07:22;;;;;;;9.80;4.03;;;;;;;;;;5057684;28;20045;-62
2021/10/20 06:09:49;;;;;;;11.27;4.95;;;;;;;;;;5057744;28;20112;-62
2021/10/20 06:12:16;;;;;;;12.45;5.30;;;;;;;;;;5057302;28;20052;-62
2021/10/20 06:14:45;;;;;;;10.35;4.40;;;;;;;;;;5057363;28;20082;-62
2021/10/20 06:17:12;;;;;;;10.38;5.05;;;;;;;;;;5057434;28;20052;-62
2021/10/20 06:19:43;;;;;;;13.35;4.93;;;;;;;;;;5056390;28;20052;-61
2021/10/20 06:22:14;;;;;;;10.38;4.82;;;;;;;;;;5057136;28;20056;-61
2021/10/20 06:24:41;;;;;;;13.48;6.63;;;;;;;;;;5055950;28;20099;-62
2021/10/20 06:27:08;;;;;;;11.32;5.75;;;;;;;;;;5055873;28;20051;-62
2021/10/20 06:29:35;;;;;;;13.60;6.22;;;;;;;;;;5057407;28;20059;-62
2021/10/20 06:32:03;;;;;;;13.63;5.20;;;;;;;;;;5058171;28;20055;-62
2021/10/20 06:34:30;;;;;;;12.77;5.60;;;;;;;;;;5057948;28;20045;-62
2021/10/20 06:36:57;;;;;;;12.00;5.70;;;;;;;;;;5056640;28;20040;-62
2021/10/20 06:39:24;;;;;;;10.38;5.55;;;;;;;;;;5056893;28;20052;-61
2021/10/20 06:41:51;;;;;;;11.77;6.00;;;;;;;;;;5057574;28;20049;-62
2021/10/20 06:44:19;;;;;;;12.82;5.70;;;;;;;;;;5061545;28;20402;-62
2021/10/20 06:46:46;;;;;;;10.48;6.03;;;;;;;;;;5060622;28;20051;-61
2021/10/20 06:49:15;;;;;;;17.33;7.15;;;;;;;;;;5061424;28;20041;-62
2021/10/20 06:51:42;;;;;;;13.68;7.22;;;;;;;;;;5060124;28;20041;-62
2021/10/20 06:54:10;;;;;;;12.60;6.78;;;;;;;;;;5061714;28;20056;-62
2021/10/20 06:56:37;;;;;;;14.60;7.68;;;;;;;;;;5059626;28;20068;-62
2021/10/20 06:59:04;;;;;;;16.80;8.63;;;;;;;;;;5060974;28;20447;-62
2021/10/20 07:01:31;;;;;;;18.73;7.70;;;;;;;;;;5060022;28;20041;-62
2021/10/20 07:03:58;;;;;;;15.48;8.02;;;;;;;;;;5062237;28;20053;-61
2021/10/20 07:06:27;;;;;;;14.98;7.32;;;;;;;;;;5060824;28;20504;-62
2021/10/20 07:08:55;;;;;;;17.67;8.73;;;;;;;;;;5068331;22;20039;-63
2021/10/20 07:11:22;;;;;;;20.95;9.15;;;;;;;;;;5036553;28;20059;-63
2021/10/20 07:13:49;;;;;;;17.60;8.95;;;;;;;;;;5030550;28;20056;-63
2021/10/20 07:16:18;;;;;;;18.00;9.52;;;;;;;;;;5030193;28;20045;-63
2021/10/20 07:18:45;;;;;;;26.65;13.90;;;;;;;;;;5030266;28;20053;-63
2021/10/20 07:21:12;;;;;;;24.17;12.70;;;;;;;;;;5030233;28;20047;-63
2021/10/20 07:23:40;;;;;;;23.42;9.23;;;;;;;;;;5030083;28;20057;-63
2021/10/20 07:26:08;;;;;;;25.58;14.02;;;;;;;;;;5029902;28;20050;-63
2021/10/20 07:28:35;;;;;;;27.83;14.35;;;;;;;;;;5029654;28;20055;-63
2021/10/20 07:31:02;;;;;;;29.77;15.43;;;;;;;;;;5030092;28;20049;-63
2021/10/20 07:33:29;;;;;;;28.05;14.57;;;;;;;;;;5029643;28;20053;-63
2021/10/20 07:35:56;;;;;;;25.20;12.38;;;;;;;;;;5029001;28;20045;-61
2021/10/20 07:38:23;;;;;;;15.25;6.47;;;;;;;;;;5029639;28;20132;-61
2021/10/20 07:40:51;;;;;;;18.83;8.48;;;;;;;;;;5029583;28;20129;-61
2021/10/20 07:43:18;;;;;;;19.65;8.30;;;;;;;;;;5029439;28;20064;-63
2021/10/20 07:45:45;;;;;;;16.20;8.38;;;;;;;;;;5029050;28;20053;-61
2021/10/20 07:48:16;;;;;;;15.45;8.20;;;;;;;;;;5029148;28;20053;-61
2021/10/20 07:50:43;;;;;;;19.52;10.13;;;;;;;;;;5029145;28;20437;-63
2021/10/20 07:53:10;;;;;;;31.13;19.70;;;;;;;;;;5028984;28;20462;-65
2021/10/20 07:55:37;;;;;;;28.73;17.33;;;;;;;;;;5027877;28;20057;-62
2021/10/20 07:58:06;;;;;;;24.00;12.05;;;;;;;;;;5029372;28;20052;-62
2021/10/20 08:00:33;;;;;;;15.68;7.50;;;;;;;;;;5028909;28;20064;-62
2021/10/20 08:03:01;;;;;;;16.30;7.20;;;;;;;;;;5028707;28;20134;-62
2021/10/20 08:05:28;;;;;;;11.30;6.38;;;;;;;;;;5028424;28;20053;-62
2021/10/20 08:07:58;;;;;;;16.05;6.72;;;;;;;;;;5028916;28;20049;-62
2021/10/20 08:10:27;;;;;;;13.48;6.32;;;;;;;;;;5028833;28;20103;-62
2021/10/20 08:12:55;;;;;;;14.50;6.75;;;;;;;;;;5028810;28;20049;-62
2021/10/20 08:15:26;;;;;;;9.18;4.63;;;;;;;;;;5028553;28;20115;-62
2021/10/20 08:17:53;;;;;;;11.15;4.15;;;;;;;;;;5029998;28;20367;-62
2021/10/20 08:20:22;;;;;;;7.28;3.00;;;;;;;;;;5029489;28;20096;-62
2021/10/20 08:22:49;;;;;;;8.68;3.75;;;;;;;;;;5028167;28;20054;-62
2021/10/20 08:25:17;;;;;;;5.32;3.03;;;;;;;;;;5028447;28;20064;-62
2021/10/20 08:27:44;;;;;;;9.20;3.50;;;;;;;;;;5028582;28;20038;-62
2021/10/20 08:30:17;;;;;;;7.43;3.05;;;;;;;;;;5028098;28;20062;-62
2021/10/20 08:32:46;;;;;;;6.55;2.80;;;;;;;;;;5028497;28;20395;-62
2021/10/20 08:35:16;;;;;;;6.93;2.90;;;;;;;;;;5028690;28;20049;-62
2021/10/20 08:37:43;;;;;;;6.07;3.00;;;;;;;;;;5028191;28;20111;-62
2021/10/20 08:40:12;;;;;;;6.80;2.75;;;;;;;;;;5028287;28;20053;-61
2021/10/20 08:42:40;;;;;;;7.63;2.80;;;;;;;;;;5028042;28;20053;-62
2021/10/20 08:45:08;;;;;;;9.52;2.97;;;;;;;;;;5028099;28;20045;-62
2021/10/20 08:47:36;;;;;;;7.70;2.85;;;;;;;;;;5028320;28;20471;-62
2021/10/20 08:50:07;;;;;;;13.68;6.07;;;;;;;;;;5028500;28;20045;-62
2021/10/20 08:52:34;;;;;;;10.35;6.28;;;;;;;;;;5028491;28;20053;-62
2021/10/20 08:55:01;;;;;;;8.02;3.33;;;;;;;;;;5027751;28;20050;-62
2021/10/20 08:57:28;;;;;;;23.08;7.40;;;;;;;;;;5028223;28;20392;-62
2021/10/20 08:59:55;;;;;;;10.75;3.58;;;;;;;;;;5027903;28;20060;-62
2021/10/20 09:02:23;;;;;;;8.38;3.85;;;;;;;;;;5027842;28;20063;-62
2021/10/20 09:04:54;;;;;;;7.20;3.03;;;;;;;;;;5027805;28;20107;-62
2021/10/20 09:07:23;;;;;;;5.93;2.88;;;;;;;;;;5027324;28;20502;-62
2021/10/20 09:09:53;;;;;;;11.07;2.90;;;;;;;;;;5027622;28;20049;-63
2021/10/20 09:12:26;;;;;;;9.18;2.95;;;;;;;;;;5027868;28;20065;-63
2021/10/20 09:14:57;;;;;;;7.63;3.13;;;;;;;;;;5027504;28;20056;-63
2021/10/20 09:17:24;;;;;;;6.22;2.50;;;;;;;;;;5028168;28;20089;-63
2021/10/20 09:19:51;;;;;;;7.32;2.53;;;;;;;;;;5027877;28;20068;-64
2021/10/20 09:22:18;;;;;;;8.30;2.78;;;;;;;;;;5028083;28;20600;-64
2021/10/20 09:24:47;;;;;;;6.40;2.80;;;;;;;;;;5027682;28;20049;-62
2021/10/20 09:27:21;;;;;;;6.30;2.25;;;;;;;;;;5028057;28;20058;-62
2021/10/20 09:29:48;;;;;;;8.18;3.60;;;;;;;;;;5027250;28;20038;-65
2021/10/20 09:32:18;;;;;;;6.35;3.00;;;;;;;;;;5027539;28;20509;-63
2021/10/20 09:34:45;;;;;;;5.25;2.78;;;;;;;;;;5027474;28;20049;-63
2021/10/20 09:37:12;;;;;;;6.22;2.90;;;;;;;;;;5027609;28;20041;-63
2021/10/20 09:39:39;;;;;;;6.60;2.80;;;;;;;;;;5027258;28;20134;-63
2021/10/20 09:42:13;;;;;;;6.07;2.55;;;;;;;;;;5027562;28;20482;-63
2021/10/20 09:44:47;;;;;;;6.40;3.10;;;;;;;;;;5027813;28;20060;-63
2021/10/20 09:47:14;;;;;;;5.60;2.80;;;;;;;;;;5027137;28;20105;-63
2021/10/20 09:49:51;;;;;;;6.85;2.92;;;;;;;;;;5027377;28;20054;-63
2021/10/20 09:52:18;;;;;;;6.63;2.83;;;;;;;;;;5027810;28;20076;-62
2021/10/20 09:54:45;;;;;;;6.22;2.80;;;;;;;;;;5027477;28;20487;-62
2021/10/20 09:57:15;;;;;;;6.97;3.90;;;;;;;;;;5027533;28;20050;-63
2021/10/20 09:59:43;;;;;;;10.85;6.93;;;;;;;;;;5027637;28;20053;-64
2021/10/20 10:02:11;;;;;;;9.05;3.78;;;;;;;;;;5027000;28;20051;-64
2021/10/20 10:04:38;;;;;;;7.60;3.00;;;;;;;;;;5027216;28;20375;-62
2021/10/20 10:07:06;;;;;;;8.00;3.38;;;;;;;;;;5027607;28;20407;-61
2021/10/20 10:09:33;;;;;;;6.68;3.08;;;;;;;;;;5027115;28;20100;-62
2021/10/20 10:12:05;;;;;;;4.80;2.55;;;;;;;;;;5027183;28;20144;-62
2021/10/20 10:14:40;;;;;;;6.53;3.03;;;;;;;;;;5026626;28;20065;-62
2021/10/20 10:17:08;;;;;;;8.05;3.40;;;;;;;;;;5027524;28;20038;-62
2021/10/20 10:19:39;;;;;;;6.25;3.33;;;;;;;;;;5031328;28;20475;-62
2021/10/20 10:22:21;;;;;;;5.88;3.05;;;;;;;;;;5031593;28;20056;-60
2021/10/20 10:24:48;;;;;;;8.43;3.40;;;;;;;;;;5031634;28;20060;-60
2021/10/20 10:27:15;;;;;;;9.13;4.00;;;;;;;;;;5031381;28;20058;-60
2021/10/20 10:29:55;;;;;;;10.52;3.80;;;;;;;;;;5030613;28;20049;-62
2021/10/20 10:32:24;;;;;;;8.63;3.33;;;;;;;;;;5030609;28;20437;-62
2021/10/20 10:34:51;;;;;;;8.10;3.22;;;;;;;;;;5030787;28;20049;-60
2021/10/20 10:37:26;;;;;;;8.32;3.10;;;;;;;;;;5030863;28;20568;-62
2021/10/20 10:39:53;;;;;;;5.15;3.03;;;;;;;;;;5030968;28;20418;-61
2021/10/20 10:42:31;;;;;;;6.50;3.22;;;;;;;;;;5030144;28;20051;-62
2021/10/20 10:45:11;;;;;;;6.15;2.90;;;;;;;;;;5030044;28;20089;-65
2021/10/20 10:47:55;;;;;;;6.57;3.10;;;;;;;;;;5030903;28;20054;-62
2021/10/20 10:50:22;;;;;;;7.28;3.08;;;;;;;;;;5030489;28;20050;-63
2021/10/20 10:52:53;;;;;;;7.72;4.07;;;;;;;;;;5031137;28;20050;-61
2021/10/20 10:55:22;;;;;;;7.82;3.40;;;;;;;;;;5029971;28;20558;-61
2021/10/20 10:57:55;;;;;;;6.75;3.08;;;;;;;;;;5032017;28;20061;-64
2021/10/20 11:00:48;;;;;;;6.80;3.25;;;;;;;;;;5034930;28;20056;-64
2021/10/20 11:03:33;;;;;;;6.65;3.88;;;;;;;;;;5034681;28;20049;-64
2021/10/20 11:06:02;;;;;;;6.78;3.22;;;;;;;;;;5034816;28;20144;-63
2021/10/20 11:08:30;;;;;;;5.85;3.00;;;;;;;;;;5034541;28;20061;-63
2021/10/20 11:10:58;;;;;;;8.32;3.65;;;;;;;;;;5034573;28;20046;-62
2021/10/20 11:13:25;;;;;;;9.00;4.00;;;;;;;;;;5034422;28;20517;-63
2021/10/20 11:15:54;;;;;;;7.55;3.70;;;;;;;;;;5034456;28;20068;-64
2021/10/20 11:18:24;;;;;;;10.15;3.97;;;;;;;;;;5034340;28;20049;-64
2021/10/20 11:20:54;;;;;;;;;;;;;;;;;;5032968;28;20042;-62
2021/10/20 11:23:21;;;;;;;13.48;4.55;;;;;;;;;;5030377;28;19967;-63
2021/10/20 11:25:49;;;;;;;7.18;3.25;;;;;;;;;;5030204;28;20144;-62
2021/10/20 11:28:16;;;;;;;6.70;3.53;;;;;;;;;;5029744;28;20049;-63
2021/10/20 11:30:43;;;;;;;7.93;3.63;;;;;;;;;;5029967;28;20037;-62
2021/10/20 11:33:14;;;;;;;6.25;3.38;;;;;;;;;;5029439;28;20092;-62
2021/10/20 11:35:42;;;;;;;6.55;3.67;;;;;;;;;;5029054;28;20061;-63
2021/10/20 11:38:11;;;;;;;6.88;3.45;;;;;;;;;;5029624;28;20098;-63
2021/10/20 11:40:44;;;;;;;6.50;3.88;;;;;;;;;;5029738;28;20076;-63
2021/10/20 11:43:19;;;;;;;7.72;3.90;;;;;;;;;;5030143;28;20068;-63
2021/10/20 11:45:47;;;;;;;6.43;3.80;;;;;;;;;;5029766;28;20045;-62
2021/10/20 11:48:18;;;;;;;7.20;4.03;;;;;;;;;;5029389;28;20060;-63
2021/10/20 11:50:50;;;;;;;7.38;3.97;;;;;;;;;;5029353;28;20072;-61
2021/10/20 11:53:17;;;;;;;7.35;4.05;;;;;;;;;;5029376;28;20049;-63
2021/10/20 11:55:45;;;;;;;7.07;4.00;;;;;;;;;;5029201;28;20415;-61
2021/10/20 11:58:20;;;;;;;5.72;3.53;;;;;;;;;;5029391;28;20056;-62
2021/10/20 12:00:54;;;;;;;7.55;4.43;;;;;;;;;;5029011;28;20491;-63
2021/10/20 12:03:32;;;;;;;8.77;4.00;;;;;;;;;;5028825;28;20061;-62
2021/10/20 12:06:00;;;;;;;7.45;3.83;;;;;;;;;;5029349;28;20058;-60
2021/10/20 12:08:27;;;;;;;9.70;4.03;;;;;;;;;;5029207;28;20054;-63
2021/10/20 12:10:54;;;;;;;9.13;3.75;;;;;;;;;;5028619;28;20053;-63
2021/10/20 12:13:21;;;;;;;7.20;3.85;;;;;;;;;;5029233;28;20045;-63
2021/10/20 12:15:49;;;;;;;9.55;4.22;;;;;;;;;;5029046;28;20057;-63
2021/10/20 12:18:17;;;;;;;8.43;4.13;;;;;;;;;;5028619;28;20053;-63
2021/10/20 12:20:51;;;;;;;9.40;4.53;;;;;;;;;;5029247;28;20046;-63
2021/10/20 12:23:19;;;;;;;8.40;3.88;;;;;;;;;;5028505;28;20578;-62
2021/10/20 12:25:46;;;;;;;8.90;4.50;;;;;;;;;;5028538;28;20144;-64
2021/10/20 12:28:14;;;;;;;8.32;4.35;;;;;;;;;;5028688;28;20041;-62
2021/10/20 12:30:41;;;;;;;10.48;4.65;;;;;;;;;;5028822;28;20049;-63
2021/10/20 12:33:09;;;;;;;9.98;4.40;;;;;;;;;;5029191;28;20144;-63
2021/10/20 12:35:38;;;;;;;8.75;4.55;;;;;;;;;;5029077;28;20495;-63
2021/10/20 12:38:07;;;;;;;10.95;4.80;;;;;;;;;;5028925;28;20068;-62
2021/10/20 12:40:36;;;;;;;8.70;4.47;;;;;;;;;;5027621;28;20053;-62
2021/10/20 12:43:07;;;;;;;10.38;4.97;;;;;;;;;;5028648;28;20562;-63
2021/10/20 12:45:35;;;;;;;7.53;4.88;;;;;;;;;;5028431;28;20240;-63
2021/10/20 12:48:05;;;;;;;9.88;5.53;;;;;;;;;;5028270;28;20049;-62
2021/10/20 12:50:34;;;;;;;8.45;4.47;;;;;;;;;;5027684;28;20049;-62
2021/10/20 12:53:01;;;;;;;9.43;4.68;;;;;;;;;;5028328;28;20498;-63
2021/10/20 12:55:30;;;;;;;7.85;4.43;;;;;;;;;;5028121;28;20136;-62
2021/10/20 12:57:58;;;;;;;9.52;5.40;;;;;;;;;;5028460;28;20057;-63
2021/10/20 13:00:29;;;;;;;9.63;5.40;;;;;;;;;;5030699;28;20640;-62
2021/10/20 13:02:57;;;;;;;13.70;5.28;;;;;;;;;;5027910;28;20095;-62
2021/10/20 13:05:24;;;;;;;10.65;5.75;;;;;;;;;;5027722;28;20982;-62
2021/10/20 13:07:54;;;;;;;8.80;4.68;;;;;;;;;;5028259;28;20045;-61
2021/10/20 13:10:22;;;;;;;9.57;4.88;;;;;;;;;;5051540;22;20088;-64
2021/10/20 13:12:57;;;;;;;8.52;5.10;;;;;;;;;;5047352;28;20053;-64
2021/10/20 13:15:25;;;;;;;10.52;5.97;;;;;;;;;;5047728;28;20493;-64
2021/10/20 13:17:52;;;;;;;10.73;5.50;;;;;;;;;;5048190;28;20482;-65
2021/10/20 13:20:20;;;;;;;8.75;5.32;;;;;;;;;;5048146;28;20049;-65
2021/10/20 13:22:47;;;;;;;9.27;5.00;;;;;;;;;;5048534;28;20072;-66
2021/10/20 13:25:16;;;;;;;10.55;5.55;;;;;;;;;;5047634;28;20049;-62
2021/10/20 13:27:44;;;;;;;9.20;5.35;;;;;;;;;;5047822;28;20054;-64
2021/10/20 13:30:15;;;;;;;11.35;5.18;;;;;;;;;;5048024;28;20059;-65
2021/10/20 13:32:42;;;;;;;9.90;5.03;;;;;;;;;;5047698;28;20044;-63
2021/10/20 13:35:10;;;;;;;9.95;5.40;;;;;;;;;;5047479;28;20045;-63
2021/10/20 13:37:38;;;;;;;9.27;5.13;;;;;;;;;;5048341;28;20484;-64
2021/10/20 13:40:06;;;;;;;8.30;5.00;;;;;;;;;;5047718;28;20568;-67
2021/10/20 13:42:34;;;;;;;13.10;5.53;;;;;;;;;;5047582;28;20057;-65
2021/10/20 13:45:04;;;;;;;8.48;4.68;;;;;;;;;;5047624;28;20045;-66
2021/10/20 13:47:32;;;;;;;8.38;5.28;;;;;;;;;;5047504;28;20052;-66
2021/10/20 13:49:59;;;;;;;10.07;5.13;;;;;;;;;;5047825;28;20059;-66
2021/10/20 13:52:27;;;;;;;8.57;4.63;;;;;;;;;;5051008;28;20049;-65
2021/10/20 13:54:54;;;;;;;12.60;6.00;;;;;;;;;;5051977;28;20049;-63
2021/10/20 13:57:21;;;;;;;7.85;5.43;;;;;;;;;;5052046;28;20060;-65
2021/10/20 13:59:50;;;;;;;9.80;5.22;;;;;;;;;;5052201;28;20980;-63
2021/10/20 14:02:17;;;;;;;11.30;5.35;;;;;;;;;;5051861;28;20514;-66
2021/10/20 14:04:45;;;;;;;11.48;5.03;;;;;;;;;;5051263;28;20056;-64
2021/10/20 14:07:13;;;;;;;8.93;5.03;;;;;;;;;;5052389;28;20052;-63
2021/10/20 14:09:41;;;;;;;10.38;5.50;;;;;;;;;;5052087;28;20386;-63
2021/10/20 14:12:09;;;;;;;9.10;4.95;;;;;;;;;;5051421;28;20494;-65
2021/10/20 14:14:36;;;;;;;11.68;5.30;;;;;;;;;;5050573;28;20137;-64
2021/10/20 14:17:04;;;;;;;9.45;5.38;;;;;;;;;;5051747;28;20128;-66
2021/10/20 14:19:33;;;;;;;10.50;5.07;;;;;;;;;;5050952;28;20642;-63
2021/10/20 14:22:02;;;;;;;7.55;4.90;;;;;;;;;;5051173;28;20049;-64
2021/10/20 14:24:29;;;;;;;10.23;5.45;;;;;;;;;;5051081;28;20052;-64
2021/10/20 14:26:56;;;;;;;9.07;4.85;;;;;;;;;;5051740;28;20052;-65
2021/10/20 14:29:24;;;;;;;9.88;5.60;;;;;;;;;;5051617;28;20060;-63
2021/10/20 14:31:52;;;;;;;9.93;5.53;;;;;;;;;;5051444;28;20139;-64
2021/10/20 14:34:21;;;;;;;7.53;4.93;;;;;;;;;;5051488;28;20088;-64
2021/10/20 14:36:48;;;;;;;9.88;5.07;;;;;;;;;;5052121;28;20045;-64
2021/10/20 14:39:16;;;;;;;10.60;5.70;;;;;;;;;;5051409;28;20136;-65
2021/10/20 14:41:44;;;;;;;9.73;5.40;;;;;;;;;;5051721;28;20060;-64
2021/10/20 14:44:12;;;;;;;10.60;5.15;;;;;;;;;;5051954;28;20041;-64
2021/10/20 14:46:39;;;;;;;7.82;4.97;;;;;;;;;;5050533;28;20064;-66